Data for 12/29/2006

Time Sea-Level Adjusted Pressure Absolute Pressure Temperature Relative Humidity Dew Point   
(mb) (inHg) (mb) (inHg) (C) (F) (%) (C) (F)
00:05 1029 30.39 858 25.34 -7 19.4 93 -8 17.6
00:10 1029 30.39 858 25.34 -7.3 18.9 93 -8.2 17.3
00:15 1029 30.39 858 25.34 -7.3 18.8 94 -8.1 17.4
00:20 1029 30.39 858 25.34 -7.2 19 94 -8 17.6
00:25 1029 30.39 858 25.34 -7.1 19.2 94 -7.9 17.7
00:30 1029 30.39 858 25.34 -7 19.3 94 -7.8 17.9
00:35 1029 30.39 858 25.34 -7.1 19.3 93 -8 17.7
00:40 1029 30.39 858 25.34 -7.1 19.2 93 -8.1 17.5
00:45 1029 30.39 858 25.34 -7.3 18.9 93 -8.3 17.1
00:50 1029 30.39 858 25.34 -7.4 18.7 93 -8.3 17
00:55 1029 30.39 858 25.34 -7.4 18.7 93 -8.4 16.9
01:00 1029 30.39 858 25.34 -7.4 18.7 93 -8.3 17
01:05 1029 30.39 858 25.34 -7.4 18.8 93 -8.3 17.1
01:10 1029 30.39 858 25.34 -7.3 18.8 93 -8.2 17.2
01:15 1029 30.39 858 25.34 -7.3 18.8 93 -8.3 17
01:20 1029 30.39 858 25.34 -7.5 18.5 93 -8.5 16.7
01:25 1029 30.39 858 25.34 -7.6 18.3 93 -8.6 16.5
01:30 1029 30.39 858 25.34 -7.8 17.9 91 -9 15.8
01:35 1029 30.39 858 25.34 -7.9 17.7 92 -9 15.8
01:40 1029 30.39 858 25.34 -8.2 17.3 90 -9.5 14.8
01:45 1029 30.39 858 25.34 -8.3 17.1 90 -9.6 14.7
01:50 1029 30.39 858 25.34 -8.5 16.6 91 -9.7 14.5
01:55 1029 30.39 858 25.34 -8.6 16.5 92 -9.8 14.4
02:00 1029 30.39 858 25.34 -8.8 16.3 91 -10 13.9
02:05 1029 30.39 858 25.34 -8.8 16.1 91 -10.1 13.9
02:10 1029 30.39 858 25.34 -8.9 16.1 92 -10 14
02:15 1029 30.39 858 25.34 -8.7 16.4 91 -9.9 14.3
02:20 1029 30.39 858 25.34 -8.7 16.4 91 -9.9 14.2
02:25 1029 30.39 858 25.34 -8.7 16.4 92 -9.8 14.3
02:30 1029 30.39 859 25.37 -8.8 16.3 91 -9.9 14.1
02:35 1029 30.39 859 25.37 -8.8 16.2 91 -10 13.9
02:40 1029 30.39 858 25.34 -8.9 16 90 -10.3 13.5
02:45 1029 30.39 858 25.34 -9.2 15.5 89 -10.6 12.9
02:50 1029 30.39 858 25.34 -9.4 15.1 89 -10.9 12.4
02:55 1029 30.39 858 25.34 -9.5 14.9 89 -11 12.3
03:00 1029 30.39 858 25.34 -9.6 14.6 90 -11 12.2
03:05 1029 30.39 858 25.34 -9.7 14.5 89 -11.2 11.9
03:10 1029 30.39 858 25.34 -9.8 14.5 90 -11.1 12
03:15 1029 30.39 858 25.34 -9.7 14.6 89 -11.1 11.9
03:20 1029 30.39 858 25.34 -9.7 14.6 89 -11.1 12
03:25 1029 30.39 858 25.34 -9.6 14.7 90 -11 12.2
03:30 1029 30.39 858 25.34 -9.6 14.7 91 -10.9 12.4
03:35 1029 30.39 858 25.34 -9.5 14.9 89 -10.9 12.3
03:40 1029 30.39 858 25.34 -9.5 14.9 89 -10.9 12.3
03:45 1029 30.39 859 25.37 -9.6 14.8 89 -11 12.2
03:50 1029 30.39 859 25.37 -9.7 14.6 90 -11.1 12
03:55 1029 30.39 859 25.37 -9.7 14.6 90 -11 12.2
04:00 1029 30.39 859 25.37 -9.7 14.6 89 -11.1 12
04:05 1029 30.39 859 25.37 -9.6 14.7 89 -11.1 12.1
04:10 1030 30.42 859 25.37 -9.6 14.7 89 -11.1 12
04:15 1030 30.42 859 25.37 -9.6 14.7 89 -11.1 12.1
04:20 1030 30.42 859 25.37 -9.6 14.8 89 -11 12.2
04:25 1030 30.42 859 25.37 -9.7 14.6 90 -11 12.2
04:30 1030 30.42 859 25.37 -9.6 14.7 91 -10.8 12.6
04:35 1030 30.42 859 25.37 -9.5 14.9 91 -10.8 12.6
04:40 1030 30.42 859 25.37 -9.3 15.2 91 -10.6 13
04:45 1030 30.42 859 25.37 -9.3 15.3 91 -10.5 13.1
04:50 1030 30.42 859 25.37 -9.3 15.3 90 -10.6 12.8
04:55 1030 30.42 859 25.37 -9.3 15.3 91 -10.6 13
05:00 1030 30.42 859 25.37 -9.3 15.2 90 -10.7 12.8
05:05 1030 30.42 859 25.37 -9.3 15.3 89 -10.7 12.7
05:10 1030 30.42 859 25.37 -9.5 14.8 90 -10.9 12.4
05:15 1030 30.42 859 25.37 -9.6 14.7 89 -11 12.1
05:20 1030 30.42 859 25.37 -9.7 14.6 90 -11.1 12.1
05:25 1030 30.42 859 25.37 -9.7 14.6 90 -11 12.1
05:30 1030 30.42 859 25.37 -9.8 14.4 89 -11.2 11.9
05:35 1030 30.42 859 25.37 -9.7 14.6 90 -11.1 12.1
05:40 1030 30.42 859 25.37 -9.7 14.6 91 -10.9 12.4
05:45 1030 30.42 859 25.37 -9.5 14.8 91 -10.7 12.7
05:50 1030 30.42 859 25.37 -9.4 15.1 91 -10.6 13
05:55 1030 30.42 859 25.37 -9.3 15.2 91 -10.5 13
06:00 1030 30.42 859 25.37 -9.3 15.3 91 -10.5 13.2
06:05 1030 30.42 859 25.37 -9.2 15.4 91 -10.5 13.1
06:10 1030 30.42 859 25.37 -9.4 15.1 91 -10.6 12.9
06:15 1030 30.42 859 25.37 -9.4 15 90 -10.8 12.6
06:20 1030 30.42 859 25.37 -9.5 14.9 91 -10.8 12.6
06:25 1030 30.42 859 25.37 -9.5 14.9 91 -10.7 12.7
06:30 1030 30.42 859 25.37 -9.4 15 91 -10.6 12.9
06:35 1030 30.42 859 25.37 -9.4 15.1 91 -10.6 12.9
06:40 1029 30.39 859 25.37 -9.5 15 91 -10.6 12.9
06:45 1029 30.39 859 25.37 -9.4 15.1 92 -10.5 13.1
06:50 1029 30.39 859 25.37 -9.3 15.2 92 -10.4 13.3
06:55 1029 30.39 859 25.37 -9.3 15.3 93 -10.3 13.5
07:00 1029 30.39 859 25.37 -9.2 15.5 92 -10.2 13.7
07:05 1029 30.39 859 25.37 -9.1 15.7 92 -10.1 13.8
07:10 1029 30.39 858 25.34 -9 15.8 92 -10 13.9
07:15 1029 30.39 858 25.34 -9 15.8 92 -10.1 13.9
07:20 1029 30.39 858 25.34 -9.1 15.7 92 -10.2 13.7
07:25 1029 30.39 858 25.34 -9.1 15.5 92 -10.2 13.6
07:30 1029 30.39 858 25.34 -9.1 15.6 92 -10.2 13.6
07:35 1029 30.39 858 25.34 -9.2 15.5 91 -10.4 13.3
07:40 1029 30.39 858 25.34 -9.3 15.4 91 -10.5 13.2
07:45 1029 30.39 858 25.34 -9.3 15.3 91 -10.4 13.2
07:50 1029 30.39 858 25.34 -9.2 15.4 92 -10.3 13.4
07:55 1029 30.39 858 25.34 -9.1 15.5 92 -10.3 13.5
08:00 1029 30.39 858 25.34 -9 15.8 92 -10.1 13.7
08:05 1029 30.39 858 25.34 -8.9 16 92 -9.9 14.1
08:10 1029 30.39 858 25.34 -8.8 16.1 92 -9.9 14.2
08:15 1029 30.39 858 25.34 -8.6 16.4 92 -9.7 14.5
08:20 1029 30.39 858 25.34 -8.6 16.6 92 -9.7 14.6
08:25 1029 30.39 858 25.34 -8.6 16.6 91 -9.8 14.3
08:30 1029 30.39 858 25.34 -8.4 16.8 90 -9.8 14.3
08:35 1029 30.39 858 25.34 -8.1 17.4 89 -9.5 14.8
08:40 1029 30.39 858 25.34 -7.7 18.1 89 -9.2 15.4
08:45 1029 30.39 859 25.37 -7.4 18.8 88 -9.1 15.7
08:50 1029 30.39 859 25.37 -7.4 18.7 86 -9.3 15.2
08:55 1029 30.39 858 25.34 -7.5 18.4 88 -9.2 15.4
09:00 1029 30.39 859 25.37 -7.6 18.2 87 -9.4 15.1
09:05 1029 30.39 859 25.37 -8.7 16.3 87 -10.6 13
09:10 1029 30.39 859 25.37 -9.3 15.2 89 -10.9 12.5
09:15 1030 30.42 859 25.37 -9.1 15.6 88 -10.7 12.7
09:20 1030 30.42 859 25.37 -8.7 16.4 88 -10.4 13.4
09:25 1030 30.42 859 25.37 -8.3 17.1 84 -10.5 13.1
09:30 1030 30.42 859 25.37 -8.2 17.2 83 -10.7 12.8
09:35 1030 30.42 859 25.37 -8.6 16.5 83 -11 12.2
09:40 1030 30.42 859 25.37 -7.9 17.7 85 -10.1 13.9
09:45 1030 30.42 859 25.37 -7 19.4 82 -9.5 14.9
09:50 1030 30.42 859 25.37 -7.4 18.8 76 -10.8 12.5
09:55 1030 30.42 859 25.37 -8.1 17.5 75 -11.7 11
10:00 1030 30.42 859 25.37 -9.1 15.7 80 -11.9 10.6
10:05 1030 30.42 859 25.37 -9.5 14.9 79 -12.5 9.5
10:10 1030 30.42 859 25.37 -9.9 14.2 79 -12.8 9
10:15 1030 30.42 859 25.37 -10.5 13 81 -13.2 8.3
10:20 1030 30.42 859 25.37 -10.9 12.4 84 -13.1 8.3
10:25 1030 30.42 859 25.37 -10.8 12.5 85 -12.9 8.7
10:30 1030 30.42 859 25.37 -10.5 13.1 84 -12.7 9.1
10:35 1030 30.42 859 25.37 -10.3 13.6 85 -12.4 9.7
10:40 1030 30.42 859 25.37 -9.6 14.7 82 -12.1 10.2
10:45 1030 30.42 859 25.37 -8.9 16 81 -11.5 11.2
10:50 1030 30.42 859 25.37 -8.2 17.2 80 -11.1 12
10:55 1030 30.42 859 25.37 -7.5 18.5 77 -10.9 12.3
11:00 1030 30.42 859 25.37 -7.4 18.7 77 -10.8 12.6
11:05 1030 30.42 859 25.37 -7.2 19.1 76 -10.7 12.7
11:10 1030 30.42 859 25.37 -7.2 19.1 76 -10.7 12.7
11:15 1030 30.42 859 25.37 -6.7 20 75 -10.3 13.4
11:20 1030 30.42 859 25.37 -6.4 20.5 77 -9.8 14.3
11:25 1029 30.39 859 25.37 -5.6 21.9 74 -9.6 14.8
11:30 1029 30.39 859 25.37 -5.4 22.3 73 -9.5 15
11:35 1029 30.39 858 25.34 -5.2 22.7 72 -9.5 14.9
11:40 1029 30.39 858 25.34 -5.1 22.8 73 -9.2 15.4
11:45 1029 30.39 858 25.34 -5 23.1 73 -9.1 15.6
11:50 1029 30.39 858 25.34 -4.5 23.9 71 -9 15.7
11:55 1029 30.39 858 25.34 -4.4 24 74 -8.4 16.8
12:00 1029 30.39 858 25.34 -3.9 24.9 72 -8.3 17.1
12:05 1029 30.39 858 25.34 -3.9 25 71 -8.4 16.8
12:10 1029 30.39 858 25.34 -4.4 24.1 71 -8.8 16.1
12:15 1029 30.39 858 25.34 -4.5 23.9 72 -8.7 16.3
12:20 1029 30.39 858 25.34 -4.3 24.4 71 -8.8 16.2
12:25 1029 30.39 858 25.34 -4.2 24.5 70 -8.9 15.9
12:30 1029 30.39 858 25.34 -4 24.8 70 -8.7 16.4
12:35 1029 30.39 858 25.34 -4.2 24.5 69 -9 15.9
12:40 1029 30.39 858 25.34 -4.1 24.6 69 -8.9 15.9
12:45 1028 30.36 858 25.34 -3.9 25.1 70 -8.6 16.6
12:50 1028 30.36 858 25.34 -3.5 25.8 69 -8.3 17
12:55 1028 30.36 857 25.31 -3.5 25.6 67 -8.7 16.3
13:00 1028 30.36 857 25.31 -3.7 25.3 67 -9 15.8
13:05 1028 30.36 857 25.31 -3.8 25.2 68 -8.7 16.3
13:10 1028 30.36 857 25.31 -3.6 25.5 67 -8.9 15.9
13:15 1028 30.36 857 25.31 -3.6 25.4 67 -9 15.8
13:20 1028 30.36 857 25.31 -3.6 25.5 67 -8.9 16.1
13:25 1028 30.36 857 25.31 -3.7 25.4 65 -9.3 15.3
13:30 1028 30.36 857 25.31 -3.6 25.6 66 -9 15.7
13:35 1028 30.36 857 25.31 -3.8 25.2 65 -9.4 15.2
13:40 1028 30.36 857 25.31 -3.8 25.2 64 -9.6 14.7
13:45 1028 30.36 857 25.31 -3.9 25 64 -9.7 14.5
13:50 1028 30.36 857 25.31 -4 24.9 66 -9.5 15
13:55 1028 30.36 857 25.31 -4.2 24.5 65 -9.7 14.5
14:00 1028 30.36 857 25.31 -4.2 24.5 65 -9.8 14.4
14:05 1028 30.36 857 25.31 -4.4 24.1 66 -9.9 14.2
14:10 1028 30.36 857 25.31 -4.6 23.7 67 -9.8 14.3
14:15 1028 30.36 857 25.31 -4.4 24.1 65 -9.9 14.1
14:20 1028 30.36 857 25.31 -4.4 24.2 65 -10 14.1
14:25 1028 30.36 857 25.31 -4.5 23.8 66 -10 14
14:30 1028 30.36 857 25.31 -5 23.1 66 -10.3 13.5
14:35 1028 30.36 857 25.31 -4.8 23.3 66 -10.2 13.6
14:40 1028 30.36 857 25.31 -4.9 23.3 68 -9.9 14.2
14:45 1028 30.36 857 25.31 -4.7 23.6 64 -10.6 13
14:50 1028 30.36 857 25.31 -4.8 23.4 64 -10.6 12.9
14:55 1027 30.33 857 25.31 -4.4 24.1 64 -10.3 13.5
15:00 1027 30.33 857 25.31 -4 24.9 64 -9.9 14.2
15:05 1027 30.33 857 25.31 -3.9 25 62 -10.1 13.9
15:10 1027 30.33 856 25.28 -3.9 25 63 -10 14
15:15 1027 30.33 856 25.28 -3.9 24.9 63 -10 13.9
15:20 1027 30.33 856 25.28 -4.1 24.6 64 -9.9 14.1
15:25 1027 30.33 856 25.28 -4.4 24 64 -10.3 13.5
15:30 1027 30.33 856 25.28 -4.3 24.2 63 -10.3 13.5
15:35 1027 30.33 857 25.31 -4.3 24.2 65 -10 14
15:40 1027 30.33 856 25.28 -4.3 24.3 65 -10 14
15:45 1027 30.33 856 25.28 -4.9 23.2 67 -10.1 13.8
15:50 1027 30.33 856 25.28 -5.2 22.6 68 -10.3 13.4
15:55 1027 30.33 856 25.28 -5 23 67 -10.3 13.5
16:00 1027 30.33 856 25.28 -4.8 23.4 67 -9.9 14.2
16:05 1027 30.33 856 25.28 -4.6 23.7 65 -10.3 13.4
16:10 1027 30.33 856 25.28 -4.8 23.4 64 -10.5 13
16:15 1027 30.33 856 25.28 -5 23 67 -10.3 13.4
16:20 1027 30.33 856 25.28 -5.2 22.7 67 -10.4 13.4
16:25 1027 30.33 856 25.28 -5.5 22.2 68 -10.6 13
16:30 1027 30.33 856 25.28 -6 21.2 70 -10.6 13
16:35 1027 30.33 856 25.28 -6.4 20.5 71 -10.7 12.7
16:40 1027 30.33 856 25.28 -6.7 19.9 73 -10.8 12.6
16:45 1027 30.33 856 25.28 -7.1 19.2 75 -10.9 12.4
16:50 1027 30.33 856 25.28 -7.5 18.5 76 -11 12.2
16:55 1027 30.33 856 25.28 -7.8 18 76 -11.4 11.5
17:00 1027 30.33 856 25.28 -8.9 16.1 81 -11.5 11.2
17:05 1027 30.33 856 25.28 -9.2 15.4 81 -11.9 10.6
17:10 1027 30.33 856 25.28 -9.5 15 82 -12 10.4
17:15 1027 30.33 856 25.28 -9.5 14.8 82 -12.1 10.2
17:20 1027 30.33 856 25.28 -9.7 14.5 83 -12.1 10.2
17:25 1027 30.33 856 25.28 -10.5 13.1 86 -12.5 9.5
17:30 1027 30.33 856 25.28 -10.9 12.4 87 -12.6 9.3
17:35 1027 30.33 856 25.28 -10.7 12.7 88 -12.4 9.6
17:40 1026 30.3 856 25.28 -10.7 12.7 86 -12.6 9.3
17:45 1026 30.3 856 25.28 -11 12.3 87 -12.7 9.1
17:50 1026 30.3 856 25.28 -10.9 12.5 86 -12.8 9
17:55 1026 30.3 855 25.25 -10.9 12.4 86 -12.9 8.9
18:00 1026 30.3 855 25.25 -11.3 11.7 86 -13.1 8.4
18:05 1026 30.3 855 25.25 -11.3 11.6 87 -13 8.5
18:10 1026 30.3 855 25.25 -11.4 11.6 88 -13 8.6
18:15 1026 30.3 855 25.25 -11.3 11.7 88 -12.8 8.9
18:20 1026 30.3 855 25.25 -11.2 11.8 88 -12.8 9
18:25 1026 30.3 855 25.25 -11.3 11.8 90 -12.6 9.2
18:30 1026 30.3 855 25.25 -11 12.2 88 -12.5 9.4
18:35 1026 30.3 855 25.25 -10.9 12.5 89 -12.4 9.7
18:40 1026 30.3 855 25.25 -10.5 13.1 87 -12.2 10
18:45 1026 30.3 855 25.25 -10.3 13.5 87 -12.1 10.3
18:50 1026 30.3 855 25.25 -10.2 13.6 86 -12.1 10.2
18:55 1026 30.3 855 25.25 -10.4 13.4 86 -12.2 10
19:00 1026 30.3 855 25.25 -10.3 13.4 86 -12.2 10.1
19:05 1026 30.3 855 25.25 -10.2 13.6 86 -12.2 10.1
19:10 1026 30.3 855 25.25 -10.1 13.8 84 -12.3 9.9
19:15 1026 30.3 855 25.25 -11 12.2 87 -12.8 8.9
19:20 1026 30.3 855 25.25 -11.6 11.1 91 -12.8 8.9
19:25 1025 30.27 855 25.25 -10.5 13.2 86 -12.3 9.9
19:30 1025 30.27 855 25.25 -9.9 14.1 86 -11.9 10.5
19:35 1025 30.27 855 25.25 -9.6 14.7 84 -11.9 10.6
19:40 1025 30.27 855 25.25 -9.7 14.6 84 -11.9 10.5
19:45 1025 30.27 855 25.25 -10 14.1 84 -12.2 10.1
19:50 1025 30.27 855 25.25 -10.7 12.7 87 -12.5 9.4
19:55 1025 30.27 855 25.25 -11 12.3 88 -12.6 9.3
20:00 1025 30.27 855 25.25 -11.2 11.8 88 -12.8 8.9
20:05 1025 30.27 855 25.25 -11.2 11.8 89 -12.7 9.1
20:10 1026 30.3 855 25.25 -11.1 12.1 88 -12.7 9.1
20:15 1026 30.3 855 25.25 -10.9 12.4 88 -12.5 9.4
20:20 1026 30.3 855 25.25 -10.8 12.7 87 -12.6 9.4
20:25 1026 30.3 855 25.25 -11 12.2 88 -12.6 9.3
20:30 1026 30.3 855 25.25 -11.5 11.4 86 -13.3 8
20:35 1025 30.27 855 25.25 -12.5 9.4 90 -13.9 7
20:40 1025 30.27 855 25.25 -12.9 8.7 91 -14.2 6.5
20:45 1025 30.27 855 25.25 -13 8.6 93 -13.9 6.9
20:50 1025 30.27 854 25.22 -12.3 9.9 92 -13.3 8.1
20:55 1025 30.27 854 25.22 -11.5 11.3 90 -12.7 9.1
21:00 1025 30.27 854 25.22 -11.5 11.3 91 -12.7 9.2
21:05 1025 30.27 854 25.22 -11 12.2 89 -12.4 9.6
21:10 1025 30.27 854 25.22 -11.2 11.9 86 -13 8.5
21:15 1025 30.27 854 25.22 -11.9 10.7 89 -13.4 7.9
21:20 1025 30.27 854 25.22 -12.4 9.6 89 -13.9 7
21:25 1025 30.27 854 25.22 -12.8 8.9 90 -14.1 6.6
21:30 1025 30.27 854 25.22 -12.7 9.2 91 -13.8 7.1
21:35 1025 30.27 854 25.22 -12.2 10.1 91 -13.4 7.9
21:40 1025 30.27 854 25.22 -11.9 10.5 89 -13.4 7.8
21:45 1025 30.27 854 25.22 -12.1 10.3 90 -13.4 7.9
21:50 1025 30.27 854 25.22 -12.3 9.9 89 -13.7 7.3
21:55 1025 30.27 854 25.22 -12.5 9.6 90 -13.8 7.2
22:00 1025 30.27 854 25.22 -12.4 9.6 90 -13.8 7.2
22:05 1024 30.24 854 25.22 -12.1 10.2 91 -13.2 8.2
22:10 1024 30.24 854 25.22 -11.8 10.9 90 -13.1 8.4
22:15 1024 30.24 854 25.22 -11.8 10.8 89 -13.3 8.1
22:20 1024 30.24 854 25.22 -12 10.5 89 -13.4 7.9
22:25 1025 30.27 854 25.22 -12 10.4 90 -13.4 8
22:30 1024 30.24 854 25.22 -11.8 10.8 89 -13.2 8.3
22:35 1024 30.24 853 25.19 -11.6 11 88 -13.2 8.2
22:40 1024 30.24 853 25.19 -11.6 11.1 88 -13.2 8.2
22:45 1024 30.24 853 25.19 -11.8 10.7 88 -13.4 7.9
22:50 1024 30.24 853 25.19 -12 10.4 90 -13.3 8.1
22:55 1024 30.24 853 25.19 -11.5 11.3 91 -12.7 9.1
23:00 1024 30.24 853 25.19 -10.5 13.2 87 -12.2 10
23:05 1024 30.24 853 25.19 -10.4 13.3 86 -12.4 9.7
23:10 1024 30.24 853 25.19 -10.7 12.8 86 -12.6 9.4
23:15 1024 30.24 853 25.19 -11 12.2 86 -12.9 8.8
23:20 1024 30.24 853 25.19 -10.9 12.5 88 -12.5 9.5
23:25 1024 30.24 853 25.19 -10.6 12.9 86 -12.5 9.4
23:30 1024 30.24 853 25.19 -11.1 12 88 -12.8 9
23:35 1024 30.24 853 25.19 -11.1 12.1 88 -12.7 9.1
23:40 1024 30.24 853 25.19 -11 12.1 88 -12.7 9.2
23:45 1024 30.24 853 25.19 -11 12.3 86 -12.8 9
23:50 1024 30.24 853 25.19 -10.9 12.4 87 -12.6 9.2
23:55 1024 30.24 853 25.19 -11 12.2 86 -12.9 8.8
24:00 1024 30.24 853 25.19 -11.5 11.3 86 -13.4 7.8